createdAt,value
2022-12-16T00:01:54.033Z,223.18
2022-12-16T00:04:24.756Z,186.48
2022-12-16T00:06:54.001Z,193.77
2022-12-16T00:09:24.509Z,174.88
2022-12-16T00:11:54.177Z,183.90
2022-12-16T00:14:24.240Z,199.02
2022-12-16T00:16:53.784Z,189.10
2022-12-16T00:19:24.283Z,199.82
2022-12-16T00:21:53.829Z,189.38
2022-12-16T00:24:24.584Z,192.63
2022-12-16T00:26:54.459Z,211.23
2022-12-16T00:29:25.178Z,196.10
2022-12-16T00:31:54.802Z,201.30
2022-12-16T00:34:24.322Z,200.80
2022-12-16T00:36:54.125Z,211.65
2022-12-16T00:39:23.547Z,199.05
2022-12-16T00:41:53.530Z,194.90
2022-12-16T00:44:24.448Z,206.10
2022-12-16T00:46:54.009Z,207.25
2022-12-16T00:49:24.625Z,170.95
2022-12-16T00:51:54.172Z,193.70
2022-12-16T00:54:24.855Z,198.57
2022-12-16T00:56:54.887Z,207.15
2022-12-16T00:59:24.861Z,202.63
2022-12-16T01:01:58.996Z,213.57
2022-12-16T01:04:31.333Z,216.10
2022-12-16T01:07:07.697Z,218.40
2022-12-16T01:09:42.186Z,212.55
2022-12-16T01:14:46.642Z,175.48
2022-12-16T01:17:16.534Z,216.68
2022-12-16T01:19:46.862Z,213.02
2022-12-16T01:22:17.020Z,208.23
2022-12-16T01:24:47.408Z,209.30
2022-12-16T01:27:17.976Z,211.02
2022-12-16T01:29:48.278Z,211.70
2022-12-16T01:32:18.435Z,197.90
2022-12-16T01:34:55.856Z,226.98
2022-12-16T01:37:26.554Z,211.75
2022-12-16T01:39:56.528Z,225.27
2022-12-16T01:42:30.046Z,225.25
2022-12-16T01:45:20.048Z,233.98
2022-12-16T01:47:50.084Z,226.18
2022-12-16T01:50:21.299Z,245.05
2022-12-16T01:52:57.301Z,236.65
2022-12-16T01:55:34.314Z,224.80
2022-12-16T01:58:13.132Z,240.25
2022-12-16T02:00:43.716Z,234.57
2022-12-16T02:03:14.280Z,227.52
2022-12-16T02:05:46.476Z,229.88
2022-12-16T02:08:21.652Z,232.35
2022-12-16T02:11:29.788Z,228.85
2022-12-16T02:14:24.590Z,224.68
2022-12-16T02:17:01.666Z,230.88
2022-12-16T02:20:15.482Z,218.20
2022-12-16T02:22:54.572Z,205.95
2022-12-16T02:25:55.357Z,218.35
2022-12-16T02:28:37.135Z,209.57
2022-12-16T02:31:30.888Z,190.13
2022-12-16T02:34:10.154Z,209.63
2022-12-16T02:37:18.161Z,204.48
2022-12-16T02:39:54.858Z,196.65
2022-12-16T02:42:54.999Z,198.82
2022-12-16T02:45:32.610Z,237.98
2022-12-16T02:48:02.407Z,196.02
2022-12-16T02:50:54.370Z,206.73
2022-12-16T02:53:38.435Z,236.27
2022-12-16T02:56:19.978Z,229.00
2022-12-16T02:59:08.220Z,212.32
2022-12-16T03:02:03.657Z,222.65
2022-12-16T03:04:38.861Z,253.95
2022-12-16T03:07:15.282Z,252.57
2022-12-16T03:09:47.913Z,276.60
2022-12-16T03:12:22.133Z,291.35
2022-12-16T03:14:54.804Z,325.23
2022-12-16T03:17:28.140Z,324.85
2022-12-16T03:20:13.504Z,355.38
2022-12-16T03:22:47.186Z,344.52
2022-12-16T03:25:19.347Z,342.00
2022-12-16T03:28:21.132Z,344.65
2022-12-16T03:30:59.574Z,364.20
2022-12-16T03:33:39.852Z,346.95
2022-12-16T03:36:17.637Z,357.20
2022-12-16T03:38:49.309Z,357.48
2022-12-16T03:41:22.138Z,353.08
2022-12-16T03:43:54.058Z,367.15
2022-12-16T03:46:24.014Z,388.50
2022-12-16T03:48:54.886Z,371.00
2022-12-16T03:51:25.735Z,407.65
2022-12-16T03:53:55.637Z,373.77
2022-12-16T03:56:25.213Z,371.85
2022-12-16T03:58:54.702Z,407.17
2022-12-16T04:01:25.265Z,429.10
2022-12-16T04:03:55.761Z,406.02
2022-12-16T04:06:26.042Z,436.25
2022-12-16T04:08:56.328Z,455.15
2022-12-16T04:11:44.305Z,458.73
2022-12-16T04:14:31.955Z,459.40
2022-12-16T04:17:20.201Z,486.75
2022-12-16T04:20:08.854Z,472.92
2022-12-16T04:22:59.841Z,463.83
2022-12-16T04:25:37.912Z,425.60
2022-12-16T04:28:08.034Z,365.27
2022-12-16T04:30:38.182Z,345.42
2022-12-16T04:33:35.207Z,322.67
2022-12-16T04:36:23.720Z,342.05
2022-12-16T04:39:12.695Z,326.23
2022-12-16T04:42:00.884Z,325.98
2022-12-16T04:44:49.215Z,312.08
2022-12-16T04:47:37.719Z,288.17
2022-12-16T04:50:26.366Z,276.85
2022-12-16T04:53:14.216Z,249.50
2022-12-16T04:56:04.371Z,268.27
2022-12-16T04:58:52.610Z,249.02
2022-12-16T05:01:41.386Z,260.85
2022-12-16T05:04:29.341Z,260.75
2022-12-16T05:07:17.183Z,253.30
2022-12-16T05:10:05.868Z,244.40
2022-12-16T05:12:54.315Z,251.23
2022-12-16T05:15:42.562Z,264.17
2022-12-16T05:18:35.750Z,203.05
2022-12-16T05:21:23.816Z,170.65
2022-12-16T05:24:11.888Z,172.07
2022-12-16T05:27:00.226Z,174.63
2022-12-16T05:29:48.901Z,153.63
2022-12-16T05:32:37.196Z,156.48
2022-12-16T05:35:26.196Z,144.32
2022-12-16T05:38:14.671Z,153.10
2022-12-16T05:41:02.769Z,154.07
2022-12-16T05:43:51.425Z,160.70
2022-12-16T05:46:39.967Z,119.28
2022-12-16T05:49:28.244Z,114.53
2022-12-16T05:52:16.951Z,87.97
2022-12-16T05:55:05.942Z,80.60
2022-12-16T05:57:53.675Z,84.03
2022-12-16T06:00:41.761Z,82.65
2022-12-16T06:03:30.548Z,78.82
2022-12-16T06:06:19.628Z,96.78
2022-12-16T06:09:09.633Z,85.85
2022-12-16T06:11:58.366Z,79.53
2022-12-16T06:14:47.666Z,83.38
2022-12-16T06:17:36.034Z,95.43
2022-12-16T06:20:24.621Z,74.45
2022-12-16T06:23:13.487Z,70.35
2022-12-16T06:26:02.684Z,79.60
2022-12-16T06:28:50.952Z,84.90
2022-12-16T06:31:39.289Z,82.47
2022-12-16T06:34:27.862Z,84.40
2022-12-16T06:37:17.387Z,91.57
2022-12-16T06:40:05.141Z,76.60
2022-12-16T06:42:53.288Z,73.63
2022-12-16T06:45:41.862Z,73.03
2022-12-16T06:48:30.390Z,76.90
2022-12-16T06:51:19.594Z,137.93
2022-12-16T06:54:08.668Z,57.35
2022-12-16T06:56:58.280Z,99.13
2022-12-16T06:59:46.412Z,78.65
2022-12-16T07:02:34.715Z,78.03
2022-12-16T07:05:22.711Z,80.85
2022-12-16T07:08:11.862Z,78.43
2022-12-16T07:11:15.574Z,69.40
2022-12-16T07:14:05.055Z,66.80
2022-12-16T07:16:58.405Z,62.53
2022-12-16T07:19:46.585Z,72.90
2022-12-16T07:22:34.586Z,70.03
2022-12-16T07:25:22.887Z,75.03
2022-12-16T07:28:15.432Z,63.35
2022-12-16T07:31:04.285Z,77.38
2022-12-16T07:33:52.297Z,65.57
2022-12-16T07:36:43.244Z,79.40
2022-12-16T07:39:31.678Z,83.15
2022-12-16T07:42:36.399Z,63.60
2022-12-16T07:45:25.523Z,89.82
2022-12-16T07:48:13.229Z,79.93
2022-12-16T07:51:01.937Z,85.07
2022-12-16T07:53:50.527Z,61.72
2022-12-16T07:56:38.670Z,68.57
2022-12-16T07:59:26.446Z,70.72
2022-12-16T08:02:14.357Z,76.00
2022-12-16T08:05:02.510Z,86.05
2022-12-16T08:07:50.867Z,77.85
2022-12-16T08:10:38.812Z,73.63
2022-12-16T08:13:26.743Z,101.47
2022-12-16T08:16:15.045Z,66.00
2022-12-16T08:22:12.192Z,77.13
2022-12-16T08:24:59.646Z,66.75
2022-12-16T08:27:47.817Z,56.25
2022-12-16T08:30:35.438Z,66.68
2022-12-16T08:33:24.533Z,77.88
2022-12-16T08:36:12.455Z,55.15
2022-12-16T08:39:02.186Z,79.07
2022-12-16T08:41:49.933Z,58.97
2022-12-16T08:44:38.125Z,56.72
2022-12-16T08:47:25.959Z,68.78
2022-12-16T08:50:14.716Z,70.18
2022-12-16T08:53:03.152Z,60.42
2022-12-16T08:55:51.576Z,56.28
2022-12-16T09:01:32.025Z,76.15
2022-12-16T09:04:20.779Z,48.42
2022-12-16T09:07:08.625Z,60.05
2022-12-16T09:09:56.604Z,65.15
2022-12-16T09:12:52.492Z,70.97
2022-12-16T09:15:41.443Z,89.13
2022-12-16T09:18:30.311Z,58.15
2022-12-16T09:21:18.654Z,51.00
2022-12-16T09:24:06.997Z,43.40
2022-12-16T09:26:54.938Z,62.20
2022-12-16T09:29:45.080Z,52.85
2022-12-16T09:32:34.080Z,46.47
2022-12-16T09:35:22.873Z,50.78
2022-12-16T09:38:11.051Z,44.40
2022-12-16T09:41:00.657Z,57.80
2022-12-16T09:44:22.234Z,59.47
2022-12-16T09:47:17.439Z,56.47
2022-12-16T09:50:10.752Z,78.20
2022-12-16T09:53:10.814Z,62.05
2022-12-16T09:56:04.050Z,75.70
2022-12-16T09:59:07.781Z,63.45
2022-12-16T10:01:58.618Z,60.75
2022-12-16T10:04:47.296Z,69.15
2022-12-16T10:07:41.113Z,73.15
2022-12-16T10:10:47.388Z,70.13
2022-12-16T10:13:47.612Z,81.05
2022-12-16T10:16:48.660Z,81.95
2022-12-16T10:20:09.816Z,66.95
2022-12-16T10:23:10.792Z,88.53
2022-12-16T10:26:29.723Z,71.60
2022-12-16T10:29:45.150Z,71.78
2022-12-16T10:33:10.568Z,106.63
2022-12-16T10:36:09.404Z,80.18
2022-12-16T10:39:18.036Z,70.07
2022-12-16T10:42:10.332Z,79.82
2022-12-16T10:44:58.396Z,98.57
2022-12-16T10:47:46.073Z,68.85
2022-12-16T10:50:34.843Z,79.18
2022-12-16T10:53:30.802Z,79.72
2022-12-16T10:56:36.779Z,88.93
2022-12-16T10:59:29.004Z,91.93
2022-12-16T11:02:25.851Z,97.10
2022-12-16T11:05:13.829Z,75.32
2022-12-16T11:08:04.287Z,99.47
2022-12-16T11:11:01.759Z,91.43
2022-12-16T11:13:53.764Z,76.75
2022-12-16T11:16:45.961Z,80.70
2022-12-16T11:19:53.864Z,77.53
2022-12-16T11:22:43.551Z,89.55
2022-12-16T11:25:37.487Z,91.00
2022-12-16T11:28:33.794Z,90.72
2022-12-16T11:31:42.655Z,83.00
2022-12-16T11:34:31.373Z,87.07
2022-12-16T11:37:21.246Z,81.10
2022-12-16T11:40:09.624Z,107.18
2022-12-16T11:43:02.650Z,97.57
2022-12-16T11:45:54.822Z,116.35
2022-12-16T11:49:13.006Z,96.70
2022-12-16T11:52:28.108Z,117.07
2022-12-16T11:59:10.908Z,108.93
2022-12-16T12:02:17.727Z,93.22
2022-12-16T12:05:11.740Z,113.28
2022-12-16T12:08:25.541Z,122.18
2022-12-16T12:11:41.379Z,160.75
2022-12-16T12:14:50.665Z,177.35
2022-12-16T12:17:43.296Z,168.50
2022-12-16T12:20:50.122Z,166.55
2022-12-16T12:23:57.880Z,192.32
2022-12-16T12:26:55.092Z,157.57
2022-12-16T12:30:16.350Z,147.82
2022-12-16T12:33:32.295Z,144.95
2022-12-16T12:36:34.523Z,153.25
2022-12-16T12:39:52.724Z,166.50
2022-12-16T12:43:10.841Z,170.40
2022-12-16T12:46:24.727Z,188.23
2022-12-16T12:49:31.382Z,203.80
2022-12-16T12:52:57.727Z,206.38
2022-12-16T12:56:01.989Z,185.63
2022-12-16T12:58:54.364Z,215.52
2022-12-16T13:01:50.800Z,246.02
2022-12-16T13:04:43.111Z,220.07
2022-12-16T13:07:31.399Z,189.95
2022-12-16T13:10:45.294Z,191.70
2022-12-16T13:13:48.673Z,196.80
2022-12-16T13:17:03.863Z,217.88
2022-12-16T13:19:51.326Z,195.93
2022-12-16T13:22:56.224Z,179.18
2022-12-16T13:26:18.272Z,195.77
2022-12-16T13:29:34.551Z,192.45
2022-12-16T13:32:24.017Z,189.82
2022-12-16T13:35:29.656Z,193.20
2022-12-16T13:38:38.590Z,222.90
2022-12-16T13:41:46.876Z,214.82
2022-12-16T13:45:04.022Z,219.02
2022-12-16T13:47:54.663Z,210.15
2022-12-16T13:51:00.586Z,207.02
2022-12-16T13:53:52.699Z,193.40
2022-12-16T13:57:08.080Z,175.63
2022-12-16T14:00:00.637Z,171.52
2022-12-16T14:03:17.695Z,197.35
2022-12-16T14:06:05.292Z,173.10
2022-12-16T14:08:57.863Z,171.68
2022-12-16T14:12:13.030Z,185.68
2022-12-16T14:15:11.743Z,189.68
2022-12-16T14:18:19.557Z,226.45
2022-12-16T14:21:26.747Z,247.73
2022-12-16T14:24:30.714Z,213.57
2022-12-16T14:27:24.391Z,241.35
2022-12-16T14:30:12.364Z,223.18
2022-12-16T14:33:00.856Z,203.68
2022-12-16T14:35:48.957Z,196.98
2022-12-16T14:38:50.029Z,218.75
2022-12-16T14:41:45.699Z,208.52
2022-12-16T14:44:41.879Z,211.13
2022-12-16T14:47:41.758Z,195.95
2022-12-16T14:50:42.046Z,205.45
2022-12-16T14:53:44.069Z,191.27
2022-12-16T14:56:39.039Z,239.02
2022-12-16T14:59:38.561Z,240.20
2022-12-16T15:02:51.561Z,242.35
2022-12-16T15:05:41.602Z,226.43
2022-12-16T15:08:32.979Z,250.30
2022-12-16T15:11:24.231Z,276.15
2022-12-16T15:14:18.048Z,240.55
2022-12-16T15:17:09.628Z,277.48
2022-12-16T15:20:05.607Z,271.98
2022-12-16T15:22:54.621Z,275.73
2022-12-16T15:25:47.116Z,278.00
2022-12-16T15:28:59.317Z,276.88
2022-12-16T15:32:13.663Z,283.35
2022-12-16T15:35:09.357Z,277.60
2022-12-16T15:38:04.431Z,290.60
2022-12-16T15:41:04.639Z,293.23
2022-12-16T15:43:57.557Z,313.08
2022-12-16T15:46:50.746Z,282.52
2022-12-16T15:50:04.109Z,327.58
2022-12-16T15:53:01.020Z,322.90
2022-12-16T15:56:04.935Z,305.45
2022-12-16T15:58:55.517Z,303.42
2022-12-16T16:01:48.012Z,286.13
2022-12-16T16:04:48.106Z,319.05
2022-12-16T16:07:38.723Z,315.10
2022-12-16T16:10:46.786Z,325.13
2022-12-16T16:13:35.144Z,325.90
2022-12-16T16:16:24.374Z,306.25
2022-12-16T16:19:12.412Z,299.85
2022-12-16T16:22:00.716Z,290.65
2022-12-16T16:24:49.023Z,316.88
2022-12-16T16:27:39.781Z,334.08
2022-12-16T16:30:31.939Z,324.27
2022-12-16T16:33:22.134Z,316.42
2022-12-16T16:36:11.851Z,338.65
2022-12-16T16:39:00.580Z,307.27
2022-12-16T16:41:49.177Z,304.50
2022-12-16T16:44:37.430Z,323.83
2022-12-16T16:47:35.139Z,291.20
2022-12-16T16:50:23.342Z,273.08
2022-12-16T16:53:11.437Z,305.13
2022-12-16T16:55:59.157Z,327.73
2022-12-16T16:58:50.483Z,294.88
2022-12-16T17:01:39.057Z,314.02
2022-12-16T17:04:27.259Z,315.35
2022-12-16T17:07:15.093Z,296.25
2022-12-16T17:10:03.247Z,308.95
2022-12-16T17:12:51.201Z,284.75
2022-12-16T17:15:51.570Z,306.60
2022-12-16T17:18:44.649Z,292.85
2022-12-16T17:21:35.014Z,298.67
2022-12-16T17:24:23.694Z,295.05
2022-12-16T17:27:11.783Z,280.88
2022-12-16T17:30:00.058Z,300.23
2022-12-16T17:33:08.191Z,287.92
2022-12-16T17:35:56.708Z,289.85
2022-12-16T17:38:44.891Z,304.58
2022-12-16T17:41:33.260Z,285.40
2022-12-16T17:44:21.131Z,306.45
2022-12-16T17:47:12.344Z,293.33
2022-12-16T17:50:00.303Z,292.80
2022-12-16T17:52:49.242Z,313.23
2022-12-16T17:55:37.609Z,300.63
2022-12-16T17:58:25.485Z,305.80
2022-12-16T18:01:13.623Z,305.75
2022-12-16T18:04:02.342Z,300.95
2022-12-16T18:06:50.154Z,306.17
2022-12-16T18:09:38.264Z,301.92
2022-12-16T18:12:25.814Z,307.63
2022-12-16T18:15:13.833Z,299.27
2022-12-16T18:18:01.458Z,310.50
2022-12-16T18:20:49.253Z,313.02
2022-12-16T18:23:37.366Z,309.88
2022-12-16T18:26:28.684Z,325.02
2022-12-16T18:29:16.833Z,337.52
2022-12-16T18:32:05.042Z,312.88
2022-12-16T18:34:52.941Z,358.73
2022-12-16T18:37:41.057Z,369.95
2022-12-16T18:40:29.547Z,339.13
2022-12-16T18:43:17.695Z,352.58
2022-12-16T18:46:12.490Z,375.90
2022-12-16T18:49:00.416Z,402.88
2022-12-16T18:51:48.424Z,386.20
2022-12-16T18:54:36.438Z,375.23
2022-12-16T18:57:24.448Z,350.30
2022-12-16T19:00:12.911Z,350.23
2022-12-16T19:03:00.637Z,334.40
2022-12-16T19:05:48.741Z,317.95
2022-12-16T19:08:36.789Z,327.60
2022-12-16T19:11:24.985Z,308.73
2022-12-16T19:14:12.718Z,314.13
2022-12-16T19:17:00.753Z,298.48
2022-12-16T19:19:48.625Z,294.58
2022-12-16T19:22:36.819Z,303.90
2022-12-16T19:25:24.639Z,326.90
2022-12-16T19:28:12.428Z,315.98
2022-12-16T19:31:00.102Z,296.98
2022-12-16T19:33:47.672Z,321.13
2022-12-16T19:36:40.597Z,301.75
2022-12-16T19:39:31.511Z,289.42
2022-12-16T19:42:19.683Z,279.88
2022-12-16T19:45:07.243Z,294.92
2022-12-16T19:47:57.442Z,296.77
2022-12-16T19:50:45.418Z,284.55
2022-12-16T19:53:33.671Z,298.70
2022-12-16T19:56:21.238Z,260.63
2022-12-16T19:59:09.125Z,269.58
2022-12-16T20:01:57.534Z,308.17
2022-12-16T20:04:45.912Z,270.38
2022-12-16T20:07:33.717Z,275.85
2022-12-16T20:10:21.513Z,281.13
2022-12-16T20:13:09.148Z,265.35
2022-12-16T20:15:57.305Z,276.80
2022-12-16T20:18:44.754Z,273.83
2022-12-16T20:21:32.406Z,250.25
2022-12-16T20:24:20.677Z,278.77
2022-12-16T20:27:08.725Z,276.75
2022-12-16T20:29:57.169Z,286.17
2022-12-16T20:32:44.900Z,274.38
2022-12-16T20:35:33.125Z,282.05
2022-12-16T20:38:21.015Z,292.65
2022-12-16T20:41:18.382Z,274.88
2022-12-16T20:44:10.479Z,297.33
2022-12-16T20:46:59.099Z,270.42
2022-12-16T20:49:46.634Z,275.40
2022-12-16T20:52:34.686Z,281.33
2022-12-16T20:55:22.670Z,270.08
2022-12-16T20:58:10.808Z,287.90
2022-12-16T21:00:58.848Z,284.65
2022-12-16T21:03:46.542Z,289.85
2022-12-16T21:06:34.426Z,304.50
2022-12-16T21:09:33.268Z,273.13
2022-12-16T21:12:20.974Z,318.05
2022-12-16T21:15:08.727Z,292.08
2022-12-16T21:17:57.466Z,320.63
2022-12-16T21:20:45.235Z,336.13
2022-12-16T21:23:32.747Z,331.65
2022-12-16T21:26:20.568Z,320.33
2022-12-16T21:29:08.415Z,343.58
2022-12-16T21:31:57.179Z,389.92
2022-12-16T21:34:44.986Z,392.00
2022-12-16T21:37:33.270Z,428.77
2022-12-16T21:40:20.939Z,425.13
2022-12-16T21:43:09.293Z,471.50
2022-12-16T21:46:01.822Z,454.85
2022-12-16T21:48:49.884Z,465.57
2022-12-16T21:51:38.004Z,477.55
2022-12-16T21:54:25.949Z,423.85
2022-12-16T21:57:13.695Z,434.02
2022-12-16T22:00:01.504Z,459.88
2022-12-16T22:02:58.291Z,449.58
2022-12-16T22:05:46.007Z,442.33
2022-12-16T22:08:33.664Z,425.10
2022-12-16T22:11:32.344Z,435.17
2022-12-16T22:14:20.236Z,444.60
2022-12-16T22:17:08.124Z,450.02
2022-12-16T22:19:56.517Z,440.63
2022-12-16T22:22:44.067Z,440.95
2022-12-16T22:25:32.073Z,473.98
2022-12-16T22:28:19.707Z,469.00
2022-12-16T22:31:15.856Z,477.33
2022-12-16T22:34:04.455Z,452.30
2022-12-16T22:36:52.156Z,429.40
2022-12-16T22:39:44.583Z,435.52
2022-12-16T22:42:33.186Z,463.48
2022-12-16T22:45:20.794Z,452.55
2022-12-16T22:48:08.627Z,469.85
2022-12-16T22:50:56.918Z,501.88
2022-12-16T22:53:45.333Z,488.02
2022-12-16T22:56:33.283Z,511.50
2022-12-16T22:59:20.925Z,464.23
2022-12-16T23:02:08.865Z,495.13
2022-12-16T23:04:57.816Z,476.13
2022-12-16T23:07:45.966Z,477.67
2022-12-16T23:10:33.827Z,510.27
2022-12-16T23:13:21.674Z,488.80
2022-12-16T23:16:09.464Z,537.20
2022-12-16T23:19:00.609Z,525.70
2022-12-16T23:21:48.331Z,559.67
2022-12-16T23:24:36.116Z,581.22
2022-12-16T23:27:24.017Z,612.20
2022-12-16T23:30:11.848Z,582.17
2022-12-16T23:32:59.394Z,650.08
2022-12-16T23:35:47.000Z,652.33
2022-12-16T23:38:34.858Z,650.03
2022-12-16T23:41:22.733Z,668.55
2022-12-16T23:44:10.456Z,671.60
2022-12-16T23:46:58.237Z,658.88
2022-12-16T23:49:46.255Z,659.25
2022-12-16T23:52:34.131Z,652.72
2022-12-16T23:55:21.932Z,638.38
2022-12-16T23:58:18.533Z,626.90
